Terminal Aerodrome Forecast
Issued by NWS

Current Version | Previous Version | Text Only | Print | Product List | Glossary On
Versions: 1 2 3 4 5 6 7 8 9 10 11 12 13 14 15 16
000
FTUS44 KLIX 221132
TAFGPT
TAF
KGPT 221132Z 2212/2312 14008KT 6SM BR FEW110
     FM221400 17008KT 5SM BR VCTS OVC020CB
      TEMPO 2217/2220 2SM -RA BR OVC007
     FM222000 21007KT P6SM VCTS BKN040CB
     FM222200 22006KT P6SM BKN090
     FM230000 24005KT P6SM SCT120
     FM230500 30007KT P6SM FEW250=

USA.gov is the U.S. government's official web portal to all federal, state and local government web resources and services.